Time;durP1;ratioP1;P1;durP2;ratioP2;P2;SDS_P1;SDS_P2;PMS_P1;PMS_P2;Temp;Humidity;BMP_temperature;BMP_pressure;BME280_temperature;BME280_humidity;BME280_pressure;Samples;Min_cycle;Max_cycle;Signal;HPM_P1;HPM_P2
2022/02/09 00:05:15;;;;;;;;;40.75;36.00;;;;;10.94;68.86;102700.16;5033169;28;45339;-74
2022/02/09 00:07:50;;;;;;;;;42.00;30.00;;;;;10.83;68.64;102683.88;5030577;28;46214;-74
2022/02/09 00:10:16;;;;;;;;;38.75;32.00;;;;;10.90;68.85;102696.47;5036573;28;45345;-74
2022/02/09 00:12:59;;;;;;;;;35.00;32.75;;;;;10.90;69.17;102698.22;5035814;28;45528;-74
2022/02/09 00:15:42;;;;;;;;;38.75;34.25;;;;;10.86;68.87;102686.63;5029678;28;45520;-74
2022/02/09 00:34:46;;;;;;;;;36.50;31.00;;;;;10.81;68.79;102682.91;5023677;28;45400;-74
2022/02/09 01:12:35;;;;;;;;;24.25;23.00;;;;;10.59;68.52;102664.38;5033898;28;45530;-74
2022/02/09 01:44:36;;;;;;;;;30.00;25.00;;;;;10.16;68.72;102638.84;5031153;28;45639;-74
2022/02/09 01:57:47;;;;;;;;;26.25;25.50;;;;;10.07;68.83;102639.38;5006064;28;45541;-74
2022/02/09 02:00:13;;;;;;;;;25.50;19.25;;;;;10.16;68.95;102646.75;5014995;28;45383;-75
2022/02/09 02:02:40;;;;;;;;;41.00;26.00;;;;;10.00;68.85;102629.38;5035487;28;45305;-74
2022/02/09 02:05:05;;;;;;;;;35.50;28.00;;;;;10.11;68.64;102646.56;5020554;28;59072;-74
2022/02/09 02:10:03;;;;;;;;;30.25;28.75;;;;;10.12;68.85;102653.66;5013661;28;45527;-74
2022/02/09 02:12:35;;;;;;;;;33.00;28.00;;;;;10.12;68.70;102644.81;5017308;28;45345;-75
2022/02/09 02:15:33;;;;;;;;;33.25;27.25;;;;;10.12;68.92;102636.91;5023076;28;45388;-74
2022/02/09 02:17:51;;;;;;;;;27.50;23.50;;;;;10.10;68.55;102636.84;5034447;28;46167;-75
2022/02/09 02:20:32;;;;;;;;;30.00;25.00;;;;;10.10;68.66;102643.88;5034489;28;45320;-74
2022/02/09 02:26:11;;;;;;;;;30.75;26.50;;;;;10.02;68.57;102632.09;5035141;28;45571;-74
2022/02/09 02:28:40;;;;;;;;;39.00;26.75;;;;;9.99;68.66;102635.50;5031081;28;45325;-74
2022/02/09 02:58:41;;;;;;;;;30.75;25.50;;;;;9.89;68.82;102606.91;5028638;28;45828;-74
2022/02/09 03:14:15;;;;;;;;;29.00;25.50;;;;;9.84;68.57;102582.06;5017820;28;45494;-74
2022/02/09 03:16:52;;;;;;;;;28.25;22.50;;;;;9.81;68.90;102567.03;5015111;28;45507;-74
2022/02/09 03:46:27;;;;;;;;;30.25;25.75;;;;;9.60;68.18;102514.28;5008844;28;45317;-74
2022/02/09 03:56:56;;;;;;;;;27.75;24.50;;;;;9.56;68.15;102519.34;5006676;28;45135;-74
2022/02/09 03:59:22;;;;;;;;;24.25;24.25;;;;;9.47;68.30;102518.97;5002600;28;45472;-74
2022/02/09 04:01:47;;;;;;;;;25.00;21.25;;;;;9.52;68.55;102518.31;4998572;28;46630;-74
2022/02/09 04:04:13;;;;;;;;;23.75;22.00;;;;;9.49;68.32;102517.31;5011808;28;45238;-74
2022/02/09 04:06:39;;;;;;;;;27.50;21.00;;;;;9.54;68.44;102526.31;5015486;28;45306;-74
2022/02/09 04:09:09;;;;;;;;;30.00;22.75;;;;;9.53;68.30;102522.75;5024503;28;45456;-74
2022/02/09 04:12:24;;;;;;;;;28.75;20.50;;;;;9.37;67.96;102500.09;5033176;28;46514;-74
2022/02/09 04:17:08;;;;;;;;;18.25;18.00;;;;;9.48;68.54;102512.84;5029077;28;45456;-74
2022/02/09 04:36:09;;;;;;;;;26.75;19.25;;;;;9.31;67.84;102523.56;5033784;28;45391;-75
2022/02/09 04:38:49;;;;;;;;;20.00;16.25;;;;;9.19;67.94;102504.59;5037137;28;45499;-75
2022/02/09 04:57:47;;;;;;;;;25.50;20.25;;;;;8.93;67.94;102498.19;5006507;28;45611;-74
2022/02/09 05:24:42;;;;;;;;;26.75;21.25;;;;;8.76;67.93;102531.66;4990097;28;45398;-74
2022/02/09 05:29:42;;;;;;;;;22.75;20.00;;;;;8.63;68.20;102518.78;4983347;28;45256;-74
2022/02/09 05:32:08;;;;;;;;;24.50;20.00;;;;;8.61;67.81;102523.97;5007370;28;45658;-74
2022/02/09 05:34:33;;;;;;;;;27.25;22.75;;;;;8.69;67.83;102536.59;5014932;28;45414;-74
2022/02/09 05:37:00;;;;;;;;;24.50;19.75;;;;;8.64;67.90;102536.38;5033255;28;62212;-74
2022/02/09 05:39:26;;;;;;;;;26.25;21.25;;;;;8.53;68.01;102516.56;5031566;28;45459;-74
2022/02/09 05:41:52;;;;;;;;;23.75;21.25;;;;;8.59;67.96;102530.00;5017814;28;45340;-74
2022/02/09 05:44:17;;;;;;;;;24.00;17.25;;;;;8.58;67.68;102523.84;5035098;28;46874;-74
2022/02/09 05:52:04;;;;;;;;;24.75;20.75;;;;;8.50;68.18;102519.94;5027223;28;45483;-73
2022/02/09 05:57:27;;;;;;;;;29.25;21.50;;;;;8.46;68.11;102528.50;5023892;28;45615;-74
2022/02/09 05:59:53;;;;;;;;;27.75;21.75;;;;;8.44;67.80;102527.56;4995537;28;46595;-74
2022/02/09 06:02:19;;;;;;;;;27.50;22.25;;;;;8.34;68.10;102513.03;5028278;28;45530;-74
2022/02/09 06:04:45;;;;;;;;;28.75;21.25;;;;;8.40;67.74;102523.88;5036432;28;45717;-74
2022/02/09 06:09:45;;;;;;;;;28.75;22.25;;;;;8.37;67.98;102534.25;5113201;22;45706;-74
2022/02/09 06:12:22;;;;;;;;;25.50;17.75;;;;;8.32;67.77;102532.22;5100031;27;45332;-73
2022/02/09 06:20:09;;;;;;;;;31.50;29.00;;;;;8.22;68.00;102525.59;5100039;27;45607;-74
2022/02/09 06:22:34;;;;;;;;;31.00;26.00;;;;;8.29;68.22;102545.22;5080527;27;45284;-73
2022/02/09 06:25:00;;;;;;;;;42.50;32.25;;;;;8.18;68.38;102531.53;5099810;27;45436;-73
2022/02/09 06:27:25;;;;;;;;;39.75;33.75;;;;;8.27;68.67;102545.16;5099557;27;47142;-74
2022/02/09 06:29:51;;;;;;;;;49.00;38.00;;;;;8.27;68.61;102539.88;5098960;27;54537;-74
2022/02/09 06:32:18;;;;;;;;;43.00;37.00;;;;;8.32;68.75;102545.38;5098325;27;45378;-74
2022/02/09 06:34:44;;;;;;;;;41.75;38.00;;;;;8.34;69.00;102539.34;5080636;27;45368;-78
2022/02/09 06:39:38;;;;;;;;;44.25;36.50;;;;;8.32;68.46;102543.63;5063967;27;45513;-79
2022/02/09 06:42:04;;;;;;;;;47.75;40.50;;;;;8.31;68.55;102547.09;5099264;27;45326;-78
2022/02/09 06:44:31;;;;;;;;;44.75;37.00;;;;;8.27;68.37;102534.63;5064233;27;45422;-78
2022/02/09 06:46:56;;;;;;;;;44.50;37.00;;;;;8.21;68.57;102520.28;5080161;27;46420;-78
2022/02/09 06:49:22;;;;;;;;;46.75;35.75;;;;;8.17;68.49;102524.47;5063621;27;45525;-78
2022/02/09 06:51:48;;;;;;;;;47.50;37.00;;;;;8.22;68.52;102540.50;5061462;27;45363;-78
2022/02/09 06:54:33;;;;;;;;;45.25;38.00;;;;;8.22;68.81;102536.13;5063245;27;45364;-79
2022/02/09 06:57:14;;;;;;;;;47.50;37.50;;;;;8.17;68.27;102526.22;5081473;27;46454;-76
2022/02/09 06:59:41;;;;;;;;;41.00;35.25;;;;;8.17;68.67;102536.75;5065438;27;45268;-78
2022/02/09 07:02:07;;;;;;;;;38.25;35.75;;;;;8.20;68.55;102561.44;5099114;27;45558;-77
2022/02/09 07:04:33;;;;;;;;;37.25;37.00;;;;;8.10;68.27;102538.19;5081149;27;45471;-74
2022/02/09 07:06:59;;;;;;;;;43.25;37.00;;;;;8.14;68.45;102551.53;5098193;27;47490;-74
2022/02/09 07:09:24;;;;;;;;;46.75;37.25;;;;;8.13;68.18;102551.47;5094340;27;45446;-75
2022/02/09 07:11:51;;;;;;;;;49.00;41.50;;;;;8.04;68.08;102543.13;5098447;27;45263;-75
2022/02/09 07:14:21;;;;;;;;;48.50;38.50;;;;;8.10;68.35;102554.88;5077037;27;45309;-73
2022/02/09 07:16:46;;;;;;;;;52.25;40.25;;;;;8.10;68.37;102548.72;5077372;27;47642;-74
2022/02/09 07:19:12;;;;;;;;;49.50;40.25;;;;;8.07;68.46;102551.16;5098096;27;45547;-74
2022/02/09 07:21:39;;;;;;;;;58.75;41.25;;;;;8.01;68.40;102540.34;5079067;27;45597;-74
2022/02/09 07:24:07;;;;;;;;;39.25;35.25;;;;;7.99;68.28;102536.72;5098072;27;45696;-73
2022/02/09 07:29:18;;;;;;;;;49.50;39.25;;;;;7.67;68.84;102570.25;5035920;27;45585;-80
2022/02/09 07:31:44;;;;;;;;;42.75;38.25;;;;;7.44;69.58;102561.16;5094940;27;45585;-79
2022/02/09 07:34:10;;;;;;;;;49.00;39.50;;;;;7.14;70.66;102557.88;5077614;27;45810;-80
2022/02/09 07:36:37;;;;;;;;;45.75;38.75;;;;;7.03;71.15;102570.44;5061359;27;47848;-83
2022/02/09 07:39:04;;;;;;;;;59.00;42.50;;;;;6.89;71.42;102567.88;5045078;27;45379;-82
2022/02/09 07:41:30;;;;;;;;;53.00;42.25;;;;;6.75;71.82;102554.00;5045214;27;46426;-78
2022/02/09 07:53:58;;;;;;;;;47.75;41.75;;;;;6.39;73.47;102555.50;5095719;27;45385;-79
2022/02/09 07:56:23;;;;;;;;;56.75;43.25;;;;;6.32;73.78;102553.38;5063008;27;46059;-80
2022/02/09 07:58:49;;;;;;;;;56.75;44.75;;;;;6.28;74.13;102550.59;5044723;27;45705;-79
2022/02/09 08:01:14;;;;;;;;;51.75;41.75;;;;;6.25;73.72;102541.63;5043166;27;50503;-79
2022/02/09 08:03:41;;;;;;;;;56.50;41.75;;;;;6.24;74.11;102545.09;5043048;27;46158;-79
2022/02/09 08:06:07;;;;;;;;;57.25;42.75;;;;;6.23;73.68;102535.38;5082943;27;47782;-77
2022/02/09 08:08:34;;;;;;;;;63.75;46.00;;;;;6.25;74.26;102541.63;5073252;27;45671;-76
2022/02/09 08:11:13;;;;;;;;;42.25;32.25;;;;;6.29;73.47;102533.13;5073604;27;45850;-76
2022/02/09 08:30:00;;;;;;;;;70.25;50.50;;;;;6.95;71.65;102507.81;5077447;27;45544;-72
2022/02/09 08:34:52;;;;;;;;;70.00;47.75;;;;;7.22;71.56;102530.25;5093393;27;45436;-73
2022/02/09 08:37:17;;;;;;;;;53.00;38.75;;;;;7.26;71.32;102513.84;5071163;27;51005;-74
2022/02/09 08:39:43;;;;;;;;;53.25;41.00;;;;;7.38;71.09;102517.91;5093662;27;45454;-73
2022/02/09 08:42:08;;;;;;;;;54.75;41.50;;;;;7.33;71.19;102494.94;5095804;27;45271;-72
2022/02/09 08:44:34;;;;;;;;;57.25;39.75;;;;;7.46;71.26;102500.81;5076417;27;45641;-73
2022/02/09 08:46:59;;;;;;;;;52.00;41.50;;;;;7.51;70.82;102500.22;5076960;27;47333;-73
2022/02/09 08:49:26;;;;;;;;;55.50;42.50;;;;;7.67;70.96;102507.16;5095092;27;55165;-75
2022/02/09 08:51:56;;;;;;;;;48.25;41.00;;;;;7.73;70.82;102510.06;5092825;27;45563;-72
2022/02/09 08:54:21;;;;;;;;;50.50;41.75;;;;;7.79;70.62;102502.50;5095402;27;45611;-73
2022/02/09 08:56:46;;;;;;;;;54.75;41.75;;;;;7.86;70.52;102501.94;5093918;27;46536;-75
2022/02/09 08:59:12;;;;;;;;;60.50;44.25;;;;;7.84;70.79;102482.56;5096226;27;48737;-75
2022/02/09 09:01:44;;;;;;;;;66.75;45.00;;;;;8.01;70.70;102500.91;5077936;27;45464;-75
2022/02/09 09:04:17;;;;;;;;;59.25;41.00;;;;;8.06;70.33;102497.66;5096909;27;45354;-75
2022/02/09 09:06:46;;;;;;;;;55.00;44.00;;;;;8.10;70.38;102489.09;5094986;27;47451;-75
2022/02/09 09:09:40;;;;;;;;;58.50;43.25;;;;;8.17;70.40;102481.50;5093833;27;45501;-76
2022/02/09 09:17:42;;;;;;;;;29.25;23.75;;;;;8.44;70.16;102476.63;5094998;27;45732;-74
2022/02/09 10:34:02;;;;;;;;;31.75;25.50;;;;;10.27;64.87;102443.94;5088750;27;45207;-76
2022/02/09 10:36:28;;;;;;;;;34.00;28.50;;;;;10.34;65.16;102446.91;5095131;27;45331;-76
2022/02/09 10:39:06;;;;;;;;;30.00;28.50;;;;;10.41;65.08;102453.31;5060596;27;45355;-76
2022/02/09 10:41:38;;;;;;;;;32.75;28.50;;;;;10.37;64.49;102433.78;5093602;27;45438;-76
2022/02/09 10:44:04;;;;;;;;;32.75;28.00;;;;;10.50;64.79;102435.16;5095199;27;46702;-75
2022/02/09 10:46:30;;;;;;;;;38.00;28.25;;;;;10.53;64.60;102429.97;5095233;27;45458;-75
2022/02/09 10:49:00;;;;;;;;;37.25;29.75;;;;;10.61;64.39;102435.56;5095135;27;45452;-76
2022/02/09 10:52:04;;;;;;;;;38.00;30.25;;;;;10.68;64.54;102434.94;5092694;27;45542;-76
2022/02/09 10:54:31;;;;;;;;;37.75;29.50;;;;;10.65;64.34;102404.03;5096245;27;46641;-74
2022/02/09 10:57:00;;;;;;;;;32.75;26.00;;;;;10.71;64.34;102401.59;5096481;27;45493;-74
2022/02/09 10:59:27;;;;;;;;;36.00;31.00;;;;;10.54;64.08;102363.09;5098380;27;45605;-74
2022/02/09 11:01:53;;;;;;;;;41.75;34.75;;;;;10.89;62.80;102411.91;5075714;27;45451;-74
2022/02/09 11:04:19;;;;;;;;;40.00;30.50;;;;;10.96;63.61;102416.56;5077223;27;46062;-74
2022/02/09 11:06:45;;;;;;;;;30.25;29.00;;;;;11.01;63.45;102412.34;5099172;27;45441;-74
2022/02/09 11:09:12;;;;;;;;;30.75;27.25;;;;;11.06;63.06;102404.56;5097253;27;45455;-74
2022/02/09 11:11:40;;;;;;;;;31.50;24.00;;;;;11.12;63.36;102406.50;5093334;27;45569;-74
2022/02/09 11:14:14;;;;;;;;;32.00;27.25;;;;;11.08;63.40;102387.03;5096927;27;46711;-74
2022/02/09 11:16:45;;;;;;;;;32.75;29.50;;;;;11.23;63.00;102405.13;5098021;27;45311;-74
2022/02/09 11:19:11;;;;;;;;;34.25;29.75;;;;;11.19;62.61;102380.34;5044971;27;45563;-76
2022/02/09 11:21:38;;;;;;;;;28.25;25.50;;;;;11.33;63.08;102396.66;5078688;27;45998;-74
2022/02/09 11:24:20;;;;;;;;;35.00;27.50;;;;;11.39;62.45;102399.50;5080281;27;46569;-77
2022/02/09 11:35:23;;;;;;;;;34.00;26.25;;;;;11.64;61.93;102380.03;5091644;27;47649;-77
2022/02/09 11:40:39;;;;;;;;;31.50;28.25;;;;;11.73;60.94;102371.50;5069344;27;45499;-81
2022/02/09 11:43:33;;;;;;;;;31.25;25.50;;;;;11.80;61.37;102374.34;5081570;27;45470;-81
2022/02/09 12:10:48;;;;;;;;;36.25;32.75;;;;;12.29;60.50;102352.00;5085246;27;45396;-74
2022/02/09 12:19:10;;;;;;;;;37.50;32.50;;;;;12.26;59.66;102300.72;5097398;27;45652;-74
2022/02/09 12:22:26;;;;;;;;;44.25;32.00;;;;;12.47;59.87;102329.56;5098166;27;45363;-74
2022/02/09 12:24:32;;;;;;;;;37.75;29.25;;;;;12.49;58.78;102326.06;5086371;27;45580;-80
2022/02/09 12:27:13;;;;;;;;;29.00;23.00;;;;;12.53;57.13;102329.72;5046941;28;45476;-79
2022/02/09 12:29:43;;;;;;;;;29.50;28.00;;;;;12.50;57.01;102313.72;5079441;27;46929;-79
2022/02/09 12:32:14;;;;;;;;;37.00;27.75;;;;;12.51;54.98;102320.81;5063130;27;45482;-79
2022/02/09 12:34:43;;;;;;;;;29.00;23.25;;;;;12.50;56.45;102311.97;5098131;27;45425;-77
2022/02/09 12:37:15;;;;;;;;;32.50;29.25;;;;;12.39;55.46;102288.69;5047140;27;45542;-80
2022/02/09 12:40:00;;;;;;;;;31.25;28.00;;;;;12.45;56.31;102297.69;5044822;27;48221;-78
2022/02/09 12:42:47;;;;;;;;;26.75;23.25;;;;;12.49;57.53;102288.97;5074036;27;45639;-78
2022/02/09 12:45:19;;;;;;;;;28.25;24.75;;;;;12.58;57.39;102301.59;5088373;27;45526;-79
2022/02/09 12:47:49;;;;;;;;;29.00;25.00;;;;;12.58;58.03;102291.00;5081088;27;45335;-78
2022/02/09 12:50:19;;;;;;;;;33.50;28.50;;;;;12.58;57.48;102281.28;5062324;27;46436;-79
2022/02/09 12:52:46;;;;;;;;;29.25;23.50;;;;;12.64;56.99;102293.78;5061646;28;45530;-80
2022/02/09 12:55:22;;;;;;;;;23.75;21.50;;;;;12.56;57.39;102275.03;5054441;27;45558;-79
2022/02/09 12:57:52;;;;;;;;;32.00;26.75;;;;;12.58;57.61;102273.34;5072297;27;45509;-79
2022/02/09 13:00:22;;;;;;;;;28.50;24.00;;;;;12.71;57.80;102286.91;5044334;27;48310;-80
2022/02/09 13:02:47;;;;;;;;;28.75;24.00;;;;;12.71;57.29;102281.59;5057517;27;45560;-78
2022/02/09 13:05:13;;;;;;;;;29.50;26.00;;;;;12.71;56.87;102276.28;5076038;27;45510;-82
2022/02/09 13:07:38;;;;;;;;;28.00;24.00;;;;;12.75;57.56;102270.22;5071791;27;45593;-80
2022/02/09 13:10:04;;;;;;;;;24.75;24.00;;;;;12.78;56.80;102276.50;5053012;27;48553;-79
2022/02/09 13:15:19;;;;;;;;;32.00;23.25;;;;;12.83;57.77;102271.28;5195680;22;45742;-76
2022/02/09 13:18:27;;;;;;;;;29.75;25.75;;;;;12.84;57.27;102266.06;5064809;27;45743;-76
2022/02/09 13:23:38;;;;;;;;;33.00;30.25;;;;;12.85;57.89;102265.19;5070397;28;46247;-76
2022/02/09 13:52:35;;;;;;;;;29.75;23.75;;;;;13.04;57.91;102223.19;5072981;28;45489;-76
2022/02/09 14:13:46;;;;;;;;;26.25;21.25;;;;;13.01;57.53;102199.28;5072207;28;45557;-75
2022/02/09 14:32:06;;;;;;;;;24.00;19.00;;;;;13.01;57.62;102188.66;5070898;28;45536;-75
2022/02/09 14:53:42;;;;;;;;;22.50;21.00;;;;;13.14;58.46;102179.22;5066437;28;45469;-79
2022/02/09 14:59:03;;;;;;;;;28.25;21.75;;;;;13.14;58.38;102180.09;5027531;28;45576;-79
2022/02/09 15:01:42;;;;;;;;;24.50;18.25;;;;;13.14;58.64;102168.59;5077631;28;46977;-78
2022/02/09 15:04:29;;;;;;;;;23.75;21.00;;;;;13.13;58.19;102165.06;5067722;28;45589;-78
2022/02/09 15:07:21;;;;;;;;;20.75;17.75;;;;;13.14;56.99;102163.31;5059425;28;45277;-78
2022/02/09 15:12:24;;;;;;;;;22.00;17.00;;;;;13.13;57.98;102157.09;5073432;28;45480;-77
2022/02/09 15:23:09;;;;;;;;;25.50;21.25;;;;;13.00;58.37;102149.75;5067111;28;45505;-79
2022/02/09 15:25:35;;;;;;;;;22.50;18.75;;;;;12.97;56.91;102145.28;5056431;28;45517;-78
2022/02/09 15:28:03;;;;;;;;;23.25;19.75;;;;;13.01;57.92;102148.91;5049231;28;45490;-77
2022/02/09 15:30:33;;;;;;;;;24.67;18.67;;;;;13.01;56.75;102148.91;5058425;28;46163;-77
2022/02/09 15:33:00;;;;;;;;;21.75;17.50;;;;;13.03;57.67;102152.47;5074190;28;47113;-77
2022/02/09 15:35:36;;;;;;;;;21.50;17.25;;;;;13.02;58.09;102142.72;5062286;28;45165;-77
2022/02/09 15:38:09;;;;;;;;;20.75;19.25;;;;;13.02;57.43;102142.72;5074638;28;45484;-77
2022/02/09 15:40:51;;;;;;;;;22.75;21.25;;;;;13.02;57.93;102135.66;5053023;28;45724;-77
2022/02/09 16:10:35;;;;;;;;;22.00;19.00;;;;;12.70;59.32;102113.75;5071755;28;45512;-78
2022/02/09 16:23:40;;;;;;;;;18.25;16.75;;;;;12.59;59.02;102108.19;5070434;28;45631;-79
2022/02/09 16:44:53;;;;;;;;;18.25;13.75;;;;;12.50;58.72;102097.38;5076452;28;45546;-79
2022/02/09 16:52:39;;;;;;;;;18.00;13.50;;;;;12.38;59.25;102096.19;5076018;27;45455;-79
2022/02/09 17:19:27;;;;;;;;;18.00;13.75;;;;;11.79;60.53;102086.78;5061037;28;45814;-78
2022/02/09 17:21:52;;;;;;;;;17.75;14.25;;;;;11.72;60.39;102083.94;5076149;28;58229;-79
2022/02/09 17:24:18;;;;;;;;;10.75;10.50;;;;;11.68;60.42;102090.00;5058631;28;45225;-79
2022/02/09 17:26:44;;;;;;;;;15.00;11.67;;;;;11.61;60.56;102086.31;5072515;28;55165;-78
2022/02/09 17:29:18;;;;;;;;;15.75;12.00;;;;;11.53;60.67;102062.25;5053499;28;45950;-78
2022/02/09 17:31:53;;;;;;;;;18.25;12.00;;;;;11.52;60.88;102080.75;5072340;28;45521;-80
2022/02/09 17:34:45;;;;;;;;;22.00;15.00;;;;;11.45;60.79;102074.41;5064231;28;45446;-79
2022/02/09 17:53:29;;;;;;;;;16.00;12.00;;;;;11.21;61.54;102097.50;5074113;28;45513;-80
2022/02/09 17:56:21;;;;;;;;;15.00;13.75;;;;;11.16;61.35;102097.38;5073546;28;45610;-79
2022/02/09 17:58:48;;;;;;;;;14.75;12.25;;;;;11.13;61.62;102107.88;5033958;28;45478;-79
2022/02/09 18:01:18;;;;;;;;;13.75;11.00;;;;;11.12;61.77;102113.97;5057966;27;46698;-80
2022/02/09 18:03:44;;;;;;;;;17.25;13.50;;;;;11.11;61.74;102112.19;5074617;27;45908;-80
2022/02/09 18:06:18;;;;;;;;;16.25;12.00;;;;;10.97;61.60;102081.81;5078346;27;45948;-80
2022/02/09 18:08:54;;;;;;;;;16.50;13.75;;;;;11.09;61.88;102110.38;5071933;28;45522;-79
2022/02/09 18:29:58;;;;;;;;;38.75;34.00;;;;;10.81;62.57;102101.59;5060973;28;45586;-85
2022/02/09 19:06:02;;;;;;;;;54.50;38.25;;;;;10.64;63.83;102082.59;5077548;28;45507;-77
2022/02/09 19:16:45;;;;;;;;;36.50;35.50;;;;;10.52;63.95;102068.13;5058971;28;45351;-79
2022/02/09 19:48:14;;;;;;;;;57.50;43.50;;;;;10.26;65.36;102062.91;5077083;28;45463;-76
2022/02/09 19:54:06;;;;;;;;;72.50;53.25;;;;;10.20;65.14;102057.41;5077922;28;45580;-78
2022/02/09 19:56:04;;;;;;;;;67.50;51.25;;;;;10.19;65.51;102051.25;5039431;28;45960;-78
2022/02/09 19:58:40;;;;;;;;;60.75;46.50;;;;;10.17;65.30;102059.94;5076199;28;45425;-79
2022/02/09 20:01:05;;;;;;;;;60.75;49.00;;;;;10.12;65.52;102049.25;5074019;28;45845;-78
2022/02/09 20:03:31;;;;;;;;;63.50;50.25;;;;;10.10;65.45;102042.13;5073886;28;45509;-78
2022/02/09 20:05:57;;;;;;;;;57.50;46.50;;;;;10.04;65.55;102034.03;5074453;28;61992;-78
2022/02/09 20:08:22;;;;;;;;;51.75;40.00;;;;;10.04;65.76;102047.22;5051804;28;45431;-77
2022/02/09 20:10:47;;;;;;;;;61.00;47.00;;;;;10.02;65.70;102048.91;5058587;28;45805;-78
2022/02/09 20:13:13;;;;;;;;;49.25;41.50;;;;;10.00;65.79;102050.59;5057372;28;53827;-77
2022/02/09 20:15:41;;;;;;;;;53.25;42.25;;;;;10.01;66.00;102049.72;5064142;28;45600;-77
2022/02/09 20:18:08;;;;;;;;;56.25;41.00;;;;;9.99;66.13;102041.78;5074460;28;45505;-77
2022/02/09 20:20:42;;;;;;;;;58.25;44.75;;;;;10.02;66.66;102035.72;5072182;28;45524;-78
2022/02/09 20:23:11;;;;;;;;;83.50;62.25;;;;;10.05;66.45;102034.06;5070749;28;45514;-77
2022/02/09 20:25:36;;;;;;;;;74.25;56.50;;;;;10.07;66.59;102040.31;5070162;28;46671;-78
2022/02/09 20:28:01;;;;;;;;;55.25;47.00;;;;;10.05;66.44;102030.53;5069663;28;59784;-77
2022/02/09 20:30:36;;;;;;;;;58.75;47.00;;;;;10.10;66.29;102042.13;5070621;28;45934;-76
2022/02/09 20:46:33;;;;;;;;;56.75;41.50;;;;;10.00;66.81;102035.66;5073822;28;45458;-77
2022/02/09 20:49:00;;;;;;;;;56.00;41.00;;;;;10.00;66.59;102032.13;5075803;28;46339;-77
2022/02/09 20:51:26;;;;;;;;;49.50;40.50;;;;;9.95;66.59;102037.25;5057318;28;45468;-76
2022/02/09 20:53:52;;;;;;;;;56.75;42.00;;;;;9.90;66.98;102038.81;5075429;28;55085;-77
2022/02/09 20:56:18;;;;;;;;;51.25;41.25;;;;;9.93;66.74;102042.47;5077057;28;45361;-78
2022/02/09 20:58:45;;;;;;;;;52.00;41.50;;;;;9.89;66.88;102040.56;5056194;28;45492;-78
2022/02/09 21:01:20;;;;;;;;;57.75;43.50;;;;;9.89;66.73;102042.31;5075975;28;45645;-77
2022/02/09 21:03:51;;;;;;;;;54.25;39.25;;;;;9.86;66.97;102037.84;5075206;28;45363;-77
2022/02/09 21:16:48;;;;;;;;;79.25;58.00;;;;;9.78;67.25;102041.06;5074851;28;45585;-77
2022/02/09 21:44:33;;;;;;;;;64.25;49.00;;;;;9.53;67.72;102052.50;5072640;28;45479;-78
2022/02/09 21:52:35;;;;;;;;;87.00;61.50;;;;;9.51;67.61;102070.03;5073107;28;45621;-78
2022/02/09 22:16:32;;;;;;;;;57.00;45.25;;;;;9.06;67.96;102052.63;5074294;28;45525;-77
2022/02/09 22:19:19;;;;;;;;;46.50;37.50;;;;;9.09;67.80;102046.56;5059337;28;45565;-78
2022/02/09 22:32:31;;;;;;;;;68.50;52.50;;;;;9.19;67.67;102019.69;5056447;28;46803;-77
2022/02/09 22:56:57;;;;;;;;;63.00;43.75;;;;;9.36;67.52;102001.84;5076795;28;45885;-77
2022/02/09 22:59:31;;;;;;;;;53.25;43.00;;;;;9.41;67.36;102002.91;5072927;28;45359;-75
2022/02/09 23:02:05;;;;;;;;;54.75;42.75;;;;;9.42;67.21;101999.41;5076848;28;45366;-76
2022/02/09 23:04:52;;;;;;;;;49.50;40.25;;;;;9.37;67.37;101988.69;5067841;28;45553;-77
2022/02/09 23:07:42;;;;;;;;;48.25;40.50;;;;;9.47;67.59;102003.09;5077927;28;45450;-77
2022/02/09 23:10:21;;;;;;;;;61.00;45.50;;;;;9.49;67.01;101997.91;5078079;28;45491;-76
2022/02/09 23:13:03;;;;;;;;;57.75;43.00;;;;;9.52;67.25;102011.19;5078851;28;45433;-79
2022/02/09 23:15:45;;;;;;;;;55.75;42.50;;;;;9.50;67.41;102005.84;5070881;28;45750;-76
2022/02/09 23:19:03;;;;;;;;;52.00;40.25;;;;;9.49;67.29;102011.09;5068975;28;46542;-76
2022/02/09 23:21:37;;;;;;;;;50.75;40.25;;;;;9.52;67.34;102005.91;5072139;28;45485;-75
2022/02/09 23:24:23;;;;;;;;;50.25;39.50;;;;;9.53;67.50;102007.69;5065125;28;45364;-75
